createdAt,value
2023-05-24T00:01:56.684Z,10.65
2023-05-24T00:04:25.119Z,14.25
2023-05-24T00:06:54.727Z,10.63
2023-05-24T00:09:21.385Z,11.73
2023-05-24T00:11:47.853Z,11.13
2023-05-24T00:14:14.376Z,18.45
2023-05-24T00:16:41.596Z,13.27
2023-05-24T00:19:11.011Z,13.07
2023-05-24T00:21:37.555Z,15.63
2023-05-24T00:24:04.015Z,12.95
2023-05-24T00:26:30.540Z,11.02
2023-05-24T00:28:57.444Z,11.30
2023-05-24T00:31:23.917Z,10.85
2023-05-24T00:33:50.442Z,16.30
2023-05-24T00:36:18.457Z,12.55
2023-05-24T00:38:47.787Z,11.30
2023-05-24T00:41:16.294Z,12.02
2023-05-24T00:43:46.086Z,11.30
2023-05-24T00:46:22.478Z,13.35
2023-05-24T00:48:50.628Z,15.50
2023-05-24T00:51:18.081Z,16.60
2023-05-24T00:53:47.672Z,14.80
2023-05-24T00:56:15.830Z,13.98
2023-05-24T00:58:43.033Z,12.98
2023-05-24T01:01:10.764Z,14.93
2023-05-24T01:03:37.833Z,14.55
2023-05-24T01:06:07.218Z,13.23
2023-05-24T01:08:39.987Z,14.25
2023-05-24T01:11:18.410Z,10.30
2023-05-24T01:14:17.298Z,16.40
2023-05-24T01:17:00.566Z,14.50
2023-05-24T01:20:06.647Z,17.95
2023-05-24T01:22:54.677Z,13.63
2023-05-24T01:25:46.396Z,18.27
2023-05-24T01:28:13.534Z,24.27
2023-05-24T01:30:41.783Z,20.85
2023-05-24T01:33:09.000Z,19.58
2023-05-24T01:35:40.184Z,20.50
2023-05-24T01:38:07.168Z,18.27
2023-05-24T01:40:35.900Z,17.52
2023-05-24T01:43:13.312Z,19.95
2023-05-24T01:46:16.294Z,19.05
2023-05-24T01:49:15.775Z,21.23
2023-05-24T01:51:57.578Z,16.17
2023-05-24T01:54:26.366Z,17.27
2023-05-24T01:56:55.108Z,18.13
2023-05-24T01:59:24.083Z,22.27
2023-05-24T02:01:51.549Z,21.92
2023-05-24T02:04:18.186Z,19.85
2023-05-24T02:06:44.825Z,14.88
2023-05-24T02:09:11.300Z,20.90
2023-05-24T02:11:37.848Z,16.77
2023-05-24T02:14:04.357Z,14.18
2023-05-24T02:16:30.878Z,15.27
2023-05-24T02:18:57.989Z,17.13
2023-05-24T02:21:25.732Z,18.92
2023-05-24T02:23:52.421Z,16.55
2023-05-24T02:26:18.980Z,12.82
2023-05-24T02:28:45.484Z,22.48
2023-05-24T02:31:12.079Z,20.00
2023-05-24T02:33:38.661Z,13.35
2023-05-24T02:36:05.249Z,14.45
2023-05-24T02:38:32.093Z,21.92
2023-05-24T02:40:58.513Z,20.38
2023-05-24T02:43:25.112Z,20.58
2023-05-24T02:45:51.655Z,18.30
2023-05-24T02:48:18.111Z,18.75
2023-05-24T02:50:44.787Z,18.23
2023-05-24T02:53:11.794Z,19.80
2023-05-24T02:55:38.527Z,17.65
2023-05-24T02:58:05.101Z,19.38
2023-05-24T03:00:33.077Z,21.58
2023-05-24T03:03:02.945Z,14.93
2023-05-24T03:05:29.636Z,17.55
2023-05-24T03:07:56.712Z,17.40
2023-05-24T03:10:23.281Z,14.70
2023-05-24T03:12:50.359Z,16.58
2023-05-24T03:15:16.789Z,12.35
2023-05-24T03:17:43.440Z,15.00
2023-05-24T03:20:11.633Z,18.08
2023-05-24T03:22:38.541Z,11.05
2023-05-24T03:25:05.596Z,15.70
2023-05-24T03:27:32.048Z,12.80
2023-05-24T03:29:59.238Z,21.77
2023-05-24T03:32:29.422Z,17.20
2023-05-24T03:34:57.451Z,14.70
2023-05-24T03:37:24.445Z,10.80
2023-05-24T03:39:52.323Z,15.15
2023-05-24T03:42:48.663Z,17.73
2023-05-24T03:45:19.531Z,14.90
2023-05-24T03:47:50.781Z,18.27
2023-05-24T03:50:18.559Z,14.88
2023-05-24T03:52:44.981Z,18.92
2023-05-24T03:55:11.615Z,14.27
2023-05-24T03:57:38.534Z,14.15
2023-05-24T04:00:07.202Z,14.68
2023-05-24T04:02:40.776Z,18.52
2023-05-24T04:05:10.056Z,19.42
2023-05-24T04:07:38.186Z,13.70
2023-05-24T04:10:06.488Z,17.50
2023-05-24T04:12:33.505Z,18.77
2023-05-24T04:15:00.771Z,14.77
2023-05-24T04:17:30.294Z,12.63
2023-05-24T04:19:56.963Z,21.27
2023-05-24T04:22:25.637Z,13.45
2023-05-24T04:24:52.697Z,20.52
2023-05-24T04:27:19.257Z,16.20
2023-05-24T04:29:49.755Z,21.10
2023-05-24T04:32:17.749Z,14.15
2023-05-24T04:34:45.896Z,18.75
2023-05-24T04:37:13.882Z,19.67
2023-05-24T04:39:40.824Z,17.42
2023-05-24T04:42:07.781Z,16.95
2023-05-24T04:44:34.212Z,14.70
2023-05-24T04:47:02.739Z,14.73
2023-05-24T04:49:29.843Z,16.63
2023-05-24T04:51:57.034Z,17.95
2023-05-24T04:54:23.905Z,16.80
2023-05-24T04:56:50.481Z,15.95
2023-05-24T04:59:16.910Z,18.33
2023-05-24T05:01:43.662Z,21.48
2023-05-24T05:04:10.248Z,14.55
2023-05-24T05:06:39.611Z,14.45
2023-05-24T05:09:10.555Z,14.63
2023-05-24T05:11:37.047Z,16.80
2023-05-24T05:14:03.617Z,21.92
2023-05-24T05:16:30.734Z,19.17
2023-05-24T05:18:58.551Z,18.17
2023-05-24T05:21:25.063Z,23.92
2023-05-24T05:23:51.501Z,14.90
2023-05-24T05:26:17.940Z,20.88
2023-05-24T05:28:44.770Z,15.32
2023-05-24T05:31:11.185Z,17.15
2023-05-24T05:33:37.688Z,18.75
2023-05-24T05:36:04.239Z,13.02
2023-05-24T05:38:30.731Z,13.98
2023-05-24T05:40:57.158Z,16.33
2023-05-24T05:43:25.063Z,17.70
2023-05-24T05:45:51.513Z,17.40
2023-05-24T05:48:17.978Z,19.05
2023-05-24T05:50:44.499Z,13.02
2023-05-24T05:53:11.172Z,18.90
2023-05-24T05:55:37.607Z,18.92
2023-05-24T05:58:04.138Z,14.57
2023-05-24T06:00:30.648Z,20.85
2023-05-24T06:02:57.257Z,21.00
2023-05-24T06:05:23.782Z,15.52
2023-05-24T06:07:50.289Z,11.10
2023-05-24T06:10:16.887Z,16.70
2023-05-24T06:12:44.770Z,14.48
2023-05-24T06:15:12.084Z,14.45
2023-05-24T06:17:38.615Z,16.08
2023-05-24T06:20:15.591Z,15.30
2023-05-24T06:22:42.636Z,17.23
2023-05-24T06:25:09.700Z,17.90
2023-05-24T06:27:36.214Z,16.80
2023-05-24T06:30:02.760Z,16.10
2023-05-24T06:32:29.282Z,18.10
2023-05-24T06:34:55.805Z,16.65
2023-05-24T06:37:25.294Z,28.10
2023-05-24T06:39:51.781Z,19.63
2023-05-24T06:42:18.267Z,20.45
2023-05-24T06:44:46.005Z,16.25
2023-05-24T06:47:12.602Z,19.98
2023-05-24T06:49:39.162Z,16.40
2023-05-24T06:52:07.788Z,15.77
2023-05-24T06:54:35.099Z,19.27
2023-05-24T06:57:03.714Z,15.82
2023-05-24T06:59:30.346Z,23.58
2023-05-24T07:01:58.929Z,17.67
2023-05-24T07:04:26.819Z,17.75
2023-05-24T07:06:53.248Z,22.58
2023-05-24T07:09:19.903Z,18.95
2023-05-24T07:11:47.466Z,16.42
2023-05-24T07:14:13.940Z,18.02
2023-05-24T07:16:40.511Z,19.85
2023-05-24T07:19:07.350Z,24.15
2023-05-24T07:21:33.836Z,25.70
2023-05-24T07:24:00.298Z,20.02
2023-05-24T07:26:26.768Z,17.35
2023-05-24T07:28:53.310Z,18.75
2023-05-24T07:31:19.823Z,19.73
2023-05-24T07:33:46.267Z,16.33
2023-05-24T07:36:12.835Z,18.65
2023-05-24T07:38:39.295Z,17.08
2023-05-24T07:41:06.850Z,18.73
2023-05-24T07:43:33.514Z,21.63
2023-05-24T07:46:00.046Z,30.38
2023-05-24T07:48:26.692Z,19.00
2023-05-24T07:50:53.147Z,16.13
2023-05-24T07:53:19.953Z,19.85
2023-05-24T07:55:46.552Z,20.83
2023-05-24T07:58:12.977Z,17.75
2023-05-24T08:00:39.600Z,16.98
2023-05-24T08:03:06.404Z,15.27
2023-05-24T08:05:32.976Z,18.75
2023-05-24T08:07:59.462Z,16.30
2023-05-24T08:10:26.304Z,17.27
2023-05-24T08:12:55.155Z,12.85
2023-05-24T08:15:21.761Z,15.82
2023-05-24T08:17:48.805Z,12.60
2023-05-24T08:20:15.885Z,11.98
2023-05-24T08:22:43.129Z,13.60
2023-05-24T08:25:11.506Z,15.07
2023-05-24T08:27:38.210Z,13.63
2023-05-24T08:30:05.620Z,13.43
2023-05-24T08:32:32.755Z,14.85
2023-05-24T08:35:14.750Z,23.17
2023-05-24T08:37:46.121Z,12.48
2023-05-24T08:40:12.811Z,12.18
2023-05-24T08:42:40.647Z,14.75
2023-05-24T08:45:14.856Z,15.95
2023-05-24T08:47:42.594Z,13.07
2023-05-24T08:50:09.825Z,15.52
2023-05-24T08:52:36.841Z,19.00
2023-05-24T08:55:07.366Z,13.95
2023-05-24T08:57:35.746Z,15.73
2023-05-24T09:00:02.272Z,14.73
2023-05-24T09:02:30.222Z,12.98
2023-05-24T09:04:57.174Z,12.90
2023-05-24T09:07:24.169Z,11.40
2023-05-24T09:10:06.896Z,12.00
2023-05-24T09:12:38.051Z,11.80
2023-05-24T09:15:07.190Z,12.20
2023-05-24T09:17:38.086Z,12.27
2023-05-24T09:20:11.413Z,9.30
2023-05-24T09:25:10.183Z,13.00
2023-05-24T09:27:37.416Z,15.43
2023-05-24T09:30:10.049Z,13.30
2023-05-24T09:32:36.540Z,12.45
2023-05-24T09:35:03.154Z,12.45
2023-05-24T09:37:32.522Z,13.15
2023-05-24T09:39:59.577Z,10.23
2023-05-24T09:42:28.247Z,9.07
2023-05-24T09:45:11.946Z,10.90
2023-05-24T09:50:17.720Z,7.72
2023-05-24T09:52:45.036Z,11.13
2023-05-24T09:55:16.374Z,7.88
2023-05-24T09:57:52.050Z,8.13
2023-05-24T10:00:23.868Z,9.00
2023-05-24T10:03:13.898Z,10.05
2023-05-24T10:05:45.511Z,10.35
2023-05-24T10:08:14.220Z,11.68
2023-05-24T10:10:42.385Z,15.05
2023-05-24T10:13:10.043Z,10.00
2023-05-24T10:15:36.585Z,14.95
2023-05-24T10:18:10.413Z,8.70
2023-05-24T10:20:40.984Z,9.48
2023-05-24T10:23:10.289Z,9.40
2023-05-24T10:25:41.409Z,12.45
2023-05-24T10:28:12.537Z,10.38
2023-05-24T10:30:48.203Z,12.40
2023-05-24T10:33:19.334Z,11.63
2023-05-24T10:35:46.186Z,11.73
2023-05-24T10:38:12.712Z,12.20
2023-05-24T10:40:42.952Z,8.70
2023-05-24T10:43:10.308Z,10.18
2023-05-24T10:45:40.393Z,8.48
2023-05-24T10:48:13.262Z,9.05
2023-05-24T10:50:41.895Z,11.00
2023-05-24T10:53:15.583Z,9.13
2023-05-24T10:55:55.784Z,10.05
2023-05-24T10:58:48.805Z,11.10
2023-05-24T11:01:29.558Z,9.37
2023-05-24T11:04:15.173Z,15.15
2023-05-24T11:06:55.877Z,14.43
2023-05-24T11:09:23.138Z,9.55
2023-05-24T11:11:54.079Z,10.60
2023-05-24T11:14:24.330Z,7.93
2023-05-24T11:16:51.917Z,8.60
2023-05-24T11:19:20.683Z,8.60
2023-05-24T11:21:48.797Z,11.27
2023-05-24T11:24:18.907Z,9.23
2023-05-24T11:26:45.950Z,9.20
2023-05-24T11:29:22.741Z,7.82
2023-05-24T11:31:54.117Z,7.18
2023-05-24T11:34:21.478Z,7.50
2023-05-24T11:36:48.935Z,10.35
2023-05-24T11:39:16.340Z,11.30
2023-05-24T11:41:43.305Z,11.68
2023-05-24T11:44:11.033Z,11.73
2023-05-24T11:46:40.459Z,7.63
2023-05-24T11:49:07.220Z,7.70
2023-05-24T11:51:35.681Z,9.15
2023-05-24T11:54:02.136Z,8.85
2023-05-24T11:56:33.928Z,6.95
2023-05-24T11:59:14.158Z,11.15
2023-05-24T12:01:40.693Z,9.18
2023-05-24T12:04:09.433Z,9.95
2023-05-24T12:06:41.224Z,7.25
2023-05-24T12:09:10.292Z,7.60
2023-05-24T12:11:44.537Z,8.05
2023-05-24T12:14:15.526Z,11.15
2023-05-24T12:16:43.508Z,8.93
2023-05-24T12:19:31.641Z,12.88
2023-05-24T12:22:00.963Z,9.23
2023-05-24T12:24:28.377Z,11.18
2023-05-24T12:27:03.281Z,11.88
2023-05-24T12:29:38.492Z,8.98
2023-05-24T12:32:05.823Z,8.75
2023-05-24T12:34:32.698Z,7.75
2023-05-24T12:36:59.747Z,9.38
2023-05-24T12:39:32.150Z,12.25
2023-05-24T12:42:01.442Z,9.65
2023-05-24T12:44:29.254Z,7.30
2023-05-24T12:46:58.142Z,7.50
2023-05-24T12:49:25.607Z,12.23
2023-05-24T12:51:54.241Z,8.27
2023-05-24T12:54:24.251Z,8.27
2023-05-24T12:56:53.461Z,7.80
2023-05-24T12:59:22.099Z,10.75
2023-05-24T13:01:52.388Z,10.45
2023-05-24T13:04:21.310Z,10.55
2023-05-24T13:06:48.614Z,8.77
2023-05-24T13:09:17.893Z,9.23
2023-05-24T13:11:44.312Z,8.63
2023-05-24T13:14:12.004Z,8.75
2023-05-24T13:16:38.479Z,7.95
2023-05-24T13:19:05.092Z,10.77
2023-05-24T13:21:31.620Z,10.75
2023-05-24T13:23:58.084Z,10.82
2023-05-24T13:26:24.597Z,11.48
2023-05-24T13:29:21.843Z,8.45
2023-05-24T13:31:38.806Z,7.47
2023-05-24T13:34:06.203Z,6.40
2023-05-24T13:36:33.580Z,7.13
2023-05-24T13:39:13.320Z,11.00
2023-05-24T13:41:41.184Z,9.98
2023-05-24T13:44:08.541Z,8.95
2023-05-24T13:46:36.254Z,8.30
2023-05-24T13:49:03.337Z,8.20
2023-05-24T13:51:30.630Z,9.77
2023-05-24T13:53:57.452Z,8.38
2023-05-24T13:56:24.783Z,10.20
2023-05-24T13:58:52.096Z,6.53
2023-05-24T14:01:18.706Z,7.30
2023-05-24T14:03:45.184Z,7.90
2023-05-24T14:06:11.887Z,9.15
2023-05-24T14:08:38.954Z,7.45
2023-05-24T14:11:05.620Z,17.20
2023-05-24T14:14:29.776Z,31.85
2023-05-24T14:16:19.810Z,15.55
2023-05-24T14:18:48.786Z,16.30
2023-05-24T14:21:15.383Z,14.15
2023-05-24T14:23:42.018Z,11.80
2023-05-24T14:26:08.596Z,7.88
2023-05-24T14:28:35.112Z,9.30
2023-05-24T14:31:02.124Z,10.50
2023-05-24T14:33:28.769Z,6.45
2023-05-24T14:35:55.285Z,10.48
2023-05-24T14:38:23.750Z,8.57
2023-05-24T14:40:51.134Z,7.20
2023-05-24T14:43:18.510Z,6.63
2023-05-24T14:45:45.217Z,10.95
2023-05-24T14:48:12.803Z,11.65
2023-05-24T14:50:40.695Z,9.00
2023-05-24T14:53:10.879Z,10.57
2023-05-24T14:55:38.356Z,8.77
2023-05-24T14:58:09.020Z,7.35
2023-05-24T15:00:36.482Z,8.00
2023-05-24T15:03:03.200Z,7.78
2023-05-24T15:05:30.151Z,8.35
2023-05-24T15:07:57.278Z,10.77
2023-05-24T15:10:23.749Z,7.13
2023-05-24T15:12:51.830Z,7.78
2023-05-24T15:15:18.933Z,9.93
2023-05-24T15:17:46.419Z,8.02
2023-05-24T15:20:12.964Z,8.57
2023-05-24T15:22:39.938Z,6.68
2023-05-24T15:25:07.306Z,6.07
2023-05-24T15:27:34.128Z,10.00
2023-05-24T15:30:00.819Z,7.85
2023-05-24T15:32:27.281Z,6.90
2023-05-24T15:34:53.761Z,6.55
2023-05-24T15:37:21.725Z,7.35
2023-05-24T15:39:49.127Z,7.05
2023-05-24T15:42:16.079Z,8.20
2023-05-24T15:44:42.540Z,6.28
2023-05-24T15:47:09.233Z,7.43
2023-05-24T15:49:35.687Z,6.75
2023-05-24T15:52:04.733Z,8.43
2023-05-24T15:54:32.085Z,7.65
2023-05-24T15:57:00.446Z,8.60
2023-05-24T15:59:27.096Z,7.03
2023-05-24T16:01:55.015Z,7.35
2023-05-24T16:04:21.577Z,8.88
2023-05-24T16:06:48.118Z,7.13
2023-05-24T16:09:14.791Z,9.55
2023-05-24T16:11:41.431Z,7.97
2023-05-24T16:14:08.372Z,7.32
2023-05-24T16:16:36.554Z,9.20
2023-05-24T16:19:03.042Z,12.77
2023-05-24T16:21:29.478Z,9.65
2023-05-24T16:23:56.035Z,8.20
2023-05-24T16:26:22.483Z,9.45
2023-05-24T16:28:49.898Z,6.95
2023-05-24T16:31:16.504Z,7.30
2023-05-24T16:33:43.063Z,7.15
2023-05-24T16:36:09.518Z,7.65
2023-05-24T16:38:37.336Z,8.35
2023-05-24T16:41:05.968Z,6.95
2023-05-24T16:43:33.001Z,7.35
2023-05-24T16:46:00.649Z,7.20
2023-05-24T16:48:31.420Z,7.05
2023-05-24T16:50:58.338Z,6.10
2023-05-24T16:53:26.621Z,6.30
2023-05-24T16:55:54.648Z,6.93
2023-05-24T16:58:22.261Z,6.47
2023-05-24T17:00:48.981Z,6.25
2023-05-24T17:03:15.637Z,8.73
2023-05-24T17:05:42.418Z,7.07
2023-05-24T17:08:08.878Z,5.72
2023-05-24T17:10:35.510Z,7.45
2023-05-24T17:13:02.203Z,12.32
2023-05-24T17:15:28.631Z,10.55
2023-05-24T17:17:56.020Z,6.00
2023-05-24T17:20:22.732Z,4.53
2023-05-24T17:22:49.430Z,10.80
2023-05-24T17:25:16.542Z,7.45
2023-05-24T17:27:42.991Z,7.68
2023-05-24T17:30:09.987Z,7.20
2023-05-24T17:32:36.741Z,6.10
2023-05-24T17:35:03.701Z,7.70
2023-05-24T17:37:30.486Z,10.20
2023-05-24T17:39:56.959Z,10.32
2023-05-24T17:42:24.707Z,8.57
2023-05-24T17:44:51.180Z,7.45
2023-05-24T17:47:17.723Z,6.25
2023-05-24T17:49:44.570Z,7.68
2023-05-24T17:52:13.931Z,9.40
2023-05-24T17:54:40.668Z,8.52
2023-05-24T17:57:07.701Z,8.05
2023-05-24T17:59:34.165Z,9.85
2023-05-24T18:02:01.010Z,6.65
2023-05-24T18:04:27.714Z,10.18
2023-05-24T18:06:55.268Z,8.70
2023-05-24T18:09:22.017Z,7.95
2023-05-24T18:11:49.496Z,9.43
2023-05-24T18:14:16.031Z,7.78
2023-05-24T18:16:42.941Z,9.57
2023-05-24T18:19:09.733Z,10.10
2023-05-24T18:21:36.731Z,8.80
2023-05-24T18:24:03.268Z,8.60
2023-05-24T18:26:30.019Z,9.75
2023-05-24T18:28:56.529Z,5.80
2023-05-24T18:31:23.034Z,9.50
2023-05-24T18:33:49.737Z,6.75
2023-05-24T18:36:16.449Z,8.02
2023-05-24T18:38:44.779Z,6.78
2023-05-24T18:41:12.128Z,8.38
2023-05-24T18:43:39.525Z,6.82
2023-05-24T18:46:06.338Z,7.90
2023-05-24T18:48:32.786Z,8.55
2023-05-24T18:50:59.309Z,11.45
2023-05-24T18:53:25.917Z,8.13
2023-05-24T18:55:52.433Z,11.40
2023-05-24T18:58:18.840Z,11.35
2023-05-24T19:00:45.384Z,10.75
2023-05-24T19:03:12.088Z,10.38
2023-05-24T19:05:41.480Z,8.27
2023-05-24T19:08:09.913Z,9.80
2023-05-24T19:10:36.808Z,9.35
2023-05-24T19:13:03.372Z,9.57
2023-05-24T19:15:29.878Z,9.90
2023-05-24T19:17:57.720Z,9.73
2023-05-24T19:20:24.410Z,6.78
2023-05-24T19:22:50.904Z,10.60
2023-05-24T19:25:17.450Z,7.53
2023-05-24T19:27:57.926Z,10.35
2023-05-24T19:30:25.436Z,8.10
2023-05-24T19:32:52.192Z,7.70
2023-05-24T19:35:18.663Z,11.10
2023-05-24T19:37:45.197Z,10.40
2023-05-24T19:40:11.763Z,10.50
2023-05-24T19:42:38.206Z,8.35
2023-05-24T19:45:05.201Z,10.20
2023-05-24T19:47:31.787Z,7.57
2023-05-24T19:49:58.385Z,9.75
2023-05-24T19:52:24.949Z,8.88
2023-05-24T19:54:51.418Z,8.43
2023-05-24T19:57:17.861Z,8.93
2023-05-24T19:59:44.363Z,5.65
2023-05-24T20:02:11.305Z,8.70
2023-05-24T20:04:41.642Z,7.05
2023-05-24T20:07:08.808Z,7.25
2023-05-24T20:09:36.000Z,10.77
2023-05-24T20:12:02.674Z,6.70
2023-05-24T20:14:31.356Z,10.20
2023-05-24T20:16:58.505Z,7.93
2023-05-24T20:19:26.123Z,10.75
2023-05-24T20:21:52.679Z,9.45
2023-05-24T20:24:19.110Z,7.13
2023-05-24T20:26:45.587Z,8.68
2023-05-24T20:29:12.039Z,9.40
2023-05-24T20:31:38.601Z,10.98
2023-05-24T20:34:05.218Z,8.13
2023-05-24T20:36:32.657Z,7.65
2023-05-24T20:38:59.106Z,9.30
2023-05-24T20:41:26.401Z,8.32
2023-05-24T20:43:52.830Z,11.00
2023-05-24T20:46:19.350Z,10.27
2023-05-24T20:48:46.230Z,11.32
2023-05-24T20:51:12.680Z,7.70
2023-05-24T20:53:39.297Z,11.65
2023-05-24T20:56:05.933Z,9.68
2023-05-24T20:58:32.428Z,8.13
2023-05-24T21:00:59.263Z,12.32
2023-05-24T21:03:25.874Z,8.95
2023-05-24T21:05:52.324Z,10.57
2023-05-24T21:08:18.770Z,8.15
2023-05-24T21:10:45.281Z,8.00
2023-05-24T21:13:11.820Z,8.77
2023-05-24T21:15:38.302Z,8.90
2023-05-24T21:18:05.196Z,8.93
2023-05-24T21:20:31.733Z,9.77
2023-05-24T21:22:58.515Z,9.90
2023-05-24T21:25:25.046Z,8.93
2023-05-24T21:27:51.830Z,9.70
2023-05-24T21:30:18.274Z,11.10
2023-05-24T21:32:45.338Z,9.63
2023-05-24T21:35:11.788Z,9.82
2023-05-24T21:37:38.474Z,9.13
2023-05-24T21:40:06.166Z,9.75
2023-05-24T21:42:32.594Z,7.20
2023-05-24T21:44:59.002Z,8.88
2023-05-24T21:47:25.478Z,8.27
2023-05-24T21:49:51.909Z,9.68
2023-05-24T21:52:19.384Z,7.30
2023-05-24T21:54:45.974Z,8.55
2023-05-24T21:57:12.501Z,9.95
2023-05-24T21:59:38.946Z,7.15
2023-05-24T22:02:05.693Z,9.15
2023-05-24T22:04:32.393Z,9.27
2023-05-24T22:06:59.172Z,10.82
2023-05-24T22:09:25.694Z,12.32
2023-05-24T22:11:52.557Z,11.15
2023-05-24T22:14:19.293Z,9.48
2023-05-24T22:16:45.851Z,10.57
2023-05-24T22:19:14.942Z,10.25
2023-05-24T22:21:43.535Z,9.02
2023-05-24T22:24:10.380Z,9.18
2023-05-24T22:26:37.119Z,10.13
2023-05-24T22:29:04.230Z,8.90
2023-05-24T22:31:33.160Z,10.50
2023-05-24T22:34:02.246Z,8.57
2023-05-24T22:36:33.236Z,8.65
2023-05-24T22:39:02.666Z,9.23
2023-05-24T22:41:29.389Z,11.40
2023-05-24T22:43:57.100Z,10.00
2023-05-24T22:46:24.244Z,12.63
2023-05-24T22:48:52.579Z,14.82
2023-05-24T22:51:19.971Z,10.27
2023-05-24T22:53:47.408Z,8.43
2023-05-24T22:56:14.029Z,11.77
2023-05-24T22:58:40.532Z,13.52
2023-05-24T23:01:07.526Z,11.55
2023-05-24T23:03:34.025Z,13.77
2023-05-24T23:06:04.031Z,11.38
2023-05-24T23:08:34.297Z,11.13
2023-05-24T23:11:01.120Z,12.25
2023-05-24T23:13:35.791Z,13.38
2023-05-24T23:16:02.544Z,12.07
2023-05-24T23:18:29.111Z,11.82
2023-05-24T23:20:56.074Z,11.93
2023-05-24T23:23:22.992Z,8.40
2023-05-24T23:25:53.259Z,9.02
2023-05-24T23:28:19.849Z,12.63
2023-05-24T23:30:46.463Z,12.98
2023-05-24T23:33:12.973Z,10.10
2023-05-24T23:35:39.877Z,11.38
2023-05-24T23:38:06.785Z,10.45
2023-05-24T23:40:34.301Z,9.57
2023-05-24T23:43:00.787Z,8.02
2023-05-24T23:45:27.350Z,8.32
2023-05-24T23:47:53.928Z,11.30
2023-05-24T23:50:22.363Z,14.70
2023-05-24T23:52:49.390Z,9.20
2023-05-24T23:55:16.244Z,9.05
2023-05-24T23:57:43.086Z,9.02
